Accueil
METAR-TAF:

METAR-TAF

Aéroports :

Aéroport international de Nouméa - La Tontouta

Nouméa / La Tontouta, Nouvelle-Calédonie

latitude: 22-01S, longitude: 166-13E, altitude: 16 m

Observation

Le bulletin a été fait il y a 19 minutes, à 19:00 UTC
Vent 3 kt de sud-est, variant entre est et sud
Température 20°C
Humidité 94%
Pression 1015 hPa
Visibilité 10 km ou plus
pas de nuages en-dessous de 1500 mètres et pas de cumulonimbus.

METAR: NWWW 071900Z AUTO 13003KT 080V190 CAVOK 20/19 Q1015 NOSIG

Heure: 06:19 (19:19 UTC)

Prévision

Le bulletin a été fait il y a 2 heures et 19 minutes, à 17:00 UTC
Prévision valable du 07 à 18 UTC au 08 à 18 UTC
Vent 2 kt de direction variable
Visibilité 10 km ou plus
Quelques nuages à une hauteur de 3500 ft

TAF: NWWW 071700Z 0718/0818 VRB02KT 9999 FEW035

Observations et prévisions météorologiques de plus de 4000 aéroports (messages METAR et TAF).

Les stations disponibles sont représentées par des disques jaunes et rouges sur la carte.

Passer la souris dessus pour voir le nom de la station.

Cliquer dessus pour voir les observations et prévisions météorologiques.

Pour changer de carte: cliquez sur les boutons verts avec une croix noire pour zoomer, sur le bouton vert avec un tiret pour effectuer un zoom arrière, ou sur les flèches vertes pour les cartes adjacentes.


METAR-TAF: